sensor_id;sensor_type;location;lat;lon;timestamp;P1;durP1;ratioP1;P2;durP2;ratioP2
25553;SDS011;13446;50.926;5.332;2023-11-19T00:01:22;7.15;;;4.38;;
25553;SDS011;13446;50.926;5.332;2023-11-19T00:03:48;4.78;;;2.95;;
25553;SDS011;13446;50.926;5.332;2023-11-19T00:06:14;4.32;;;3.10;;
25553;SDS011;13446;50.926;5.332;2023-11-19T00:08:41;3.75;;;2.85;;
25553;SDS011;13446;50.926;5.332;2023-11-19T00:11:08;4.45;;;2.88;;
25553;SDS011;13446;50.926;5.332;2023-11-19T00:13:34;4.10;;;3.17;;
25553;SDS011;13446;50.926;5.332;2023-11-19T00:16:06;4.65;;;2.80;;
25553;SDS011;13446;50.926;5.332;2023-11-19T00:18:33;3.83;;;2.85;;
25553;SDS011;13446;50.926;5.332;2023-11-19T00:20:59;4.70;;;3.13;;
25553;SDS011;13446;50.926;5.332;2023-11-19T00:23:24;7.82;;;3.38;;
25553;SDS011;13446;50.926;5.332;2023-11-19T00:25:50;4.03;;;3.55;;
25553;SDS011;13446;50.926;5.332;2023-11-19T00:28:16;7.13;;;4.13;;
25553;SDS011;13446;50.926;5.332;2023-11-19T00:30:41;8.65;;;4.43;;
25553;SDS011;13446;50.926;5.332;2023-11-19T00:33:07;4.68;;;3.97;;
25553;SDS011;13446;50.926;5.332;2023-11-19T00:35:33;6.22;;;4.32;;
25553;SDS011;13446;50.926;5.332;2023-11-19T00:37:59;8.65;;;4.95;;
25553;SDS011;13446;50.926;5.332;2023-11-19T00:40:25;6.25;;;5.07;;
25553;SDS011;13446;50.926;5.332;2023-11-19T00:42:51;10.90;;;5.60;;
25553;SDS011;13446;50.926;5.332;2023-11-19T00:45:22;10.50;;;5.43;;
25553;SDS011;13446;50.926;5.332;2023-11-19T00:47:48;13.95;;;5.53;;
25553;SDS011;13446;50.926;5.332;2023-11-19T00:50:14;10.15;;;6.35;;
25553;SDS011;13446;50.926;5.332;2023-11-19T00:52:40;11.73;;;6.10;;
25553;SDS011;13446;50.926;5.332;2023-11-19T00:55:06;13.82;;;6.25;;
25553;SDS011;13446;50.926;5.332;2023-11-19T00:57:34;14.77;;;6.55;;
25553;SDS011;13446;50.926;5.332;2023-11-19T01:00:00;8.68;;;5.55;;
25553;SDS011;13446;50.926;5.332;2023-11-19T01:02:39;10.00;;;6.70;;
25553;SDS011;13446;50.926;5.332;2023-11-19T01:05:05;16.80;;;5.57;;
25553;SDS011;13446;50.926;5.332;2023-11-19T01:07:33;19.15;;;5.88;;
25553;SDS011;13446;50.926;5.332;2023-11-19T01:09:59;17.02;;;5.50;;
25553;SDS011;13446;50.926;5.332;2023-11-19T01:12:24;12.75;;;5.18;;
25553;SDS011;13446;50.926;5.332;2023-11-19T01:14:50;14.25;;;5.40;;
25553;SDS011;13446;50.926;5.332;2023-11-19T01:17:16;21.70;;;5.57;;
25553;SDS011;13446;50.926;5.332;2023-11-19T01:19:41;16.55;;;5.32;;
25553;SDS011;13446;50.926;5.332;2023-11-19T01:22:07;16.10;;;4.28;;
25553;SDS011;13446;50.926;5.332;2023-11-19T01:24:33;21.67;;;4.68;;
25553;SDS011;13446;50.926;5.332;2023-11-19T01:26:59;17.83;;;5.22;;
25553;SDS011;13446;50.926;5.332;2023-11-19T01:29:25;19.30;;;4.45;;
25553;SDS011;13446;50.926;5.332;2023-11-19T01:31:51;18.90;;;3.70;;
25553;SDS011;13446;50.926;5.332;2023-11-19T01:34:17;25.80;;;4.22;;
25553;SDS011;13446;50.926;5.332;2023-11-19T01:36:43;18.40;;;3.90;;
25553;SDS011;13446;50.926;5.332;2023-11-19T01:39:11;20.95;;;4.00;;
25553;SDS011;13446;50.926;5.332;2023-11-19T01:41:37;20.65;;;4.10;;
25553;SDS011;13446;50.926;5.332;2023-11-19T01:44:05;12.25;;;3.90;;
25553;SDS011;13446;50.926;5.332;2023-11-19T01:46:31;18.85;;;3.80;;
25553;SDS011;13446;50.926;5.332;2023-11-19T01:49:00;23.63;;;4.18;;
25553;SDS011;13446;50.926;5.332;2023-11-19T01:51:27;24.15;;;4.07;;
25553;SDS011;13446;50.926;5.332;2023-11-19T01:53:53;18.30;;;4.13;;
25553;SDS011;13446;50.926;5.332;2023-11-19T01:56:21;17.35;;;3.92;;
25553;SDS011;13446;50.926;5.332;2023-11-19T01:58:48;28.48;;;4.57;;
25553;SDS011;13446;50.926;5.332;2023-11-19T02:01:16;14.00;;;4.07;;
25553;SDS011;13446;50.926;5.332;2023-11-19T02:03:43;19.27;;;3.70;;
25553;SDS011;13446;50.926;5.332;2023-11-19T02:06:09;22.50;;;4.10;;
25553;SDS011;13446;50.926;5.332;2023-11-19T02:08:35;20.75;;;3.30;;
25553;SDS011;13446;50.926;5.332;2023-11-19T02:11:02;23.35;;;3.50;;
25553;SDS011;13446;50.926;5.332;2023-11-19T02:13:28;21.80;;;3.63;;
25553;SDS011;13446;50.926;5.332;2023-11-19T02:15:54;24.98;;;3.45;;
25553;SDS011;13446;50.926;5.332;2023-11-19T02:20:47;31.58;;;4.22;;
25553;SDS011;13446;50.926;5.332;2023-11-19T02:23:14;26.60;;;3.75;;
25553;SDS011;13446;50.926;5.332;2023-11-19T02:25:40;18.40;;;3.20;;
25553;SDS011;13446;50.926;5.332;2023-11-19T02:28:08;23.10;;;3.22;;
25553;SDS011;13446;50.926;5.332;2023-11-19T02:30:37;24.45;;;4.25;;
25553;SDS011;13446;50.926;5.332;2023-11-19T02:33:03;27.35;;;4.63;;
25553;SDS011;13446;50.926;5.332;2023-11-19T02:35:31;26.40;;;3.88;;
25553;SDS011;13446;50.926;5.332;2023-11-19T02:37:57;24.08;;;3.28;;
25553;SDS011;13446;50.926;5.332;2023-11-19T02:40:28;23.40;;;3.42;;
25553;SDS011;13446;50.926;5.332;2023-11-19T02:42:54;40.92;;;9.90;;
25553;SDS011;13446;50.926;5.332;2023-11-19T02:45:22;28.65;;;3.83;;
25553;SDS011;13446;50.926;5.332;2023-11-19T02:47:49;26.90;;;4.22;;
25553;SDS011;13446;50.926;5.332;2023-11-19T02:50:15;29.25;;;3.83;;
25553;SDS011;13446;50.926;5.332;2023-11-19T02:52:50;21.55;;;3.70;;
25553;SDS011;13446;50.926;5.332;2023-11-19T02:55:18;15.50;;;3.05;;
25553;SDS011;13446;50.926;5.332;2023-11-19T02:57:44;31.65;;;4.28;;
25553;SDS011;13446;50.926;5.332;2023-11-19T03:00:20;27.20;;;3.78;;
25553;SDS011;13446;50.926;5.332;2023-11-19T03:02:56;31.02;;;4.00;;
25553;SDS011;13446;50.926;5.332;2023-11-19T03:05:30;36.92;;;4.30;;
25553;SDS011;13446;50.926;5.332;2023-11-19T03:07:56;32.30;;;4.50;;
25553;SDS011;13446;50.926;5.332;2023-11-19T03:10:22;26.83;;;3.58;;
25553;SDS011;13446;50.926;5.332;2023-11-19T03:12:49;26.80;;;3.67;;
25553;SDS011;13446;50.926;5.332;2023-11-19T03:15:14;23.45;;;3.65;;
25553;SDS011;13446;50.926;5.332;2023-11-19T03:17:43;33.92;;;4.82;;
25553;SDS011;13446;50.926;5.332;2023-11-19T03:20:10;29.23;;;4.35;;
25553;SDS011;13446;50.926;5.332;2023-11-19T03:22:42;22.38;;;3.95;;
25553;SDS011;13446;50.926;5.332;2023-11-19T03:25:09;30.13;;;4.57;;
25553;SDS011;13446;50.926;5.332;2023-11-19T03:27:38;42.40;;;4.28;;
25553;SDS011;13446;50.926;5.332;2023-11-19T03:30:06;31.60;;;3.90;;
25553;SDS011;13446;50.926;5.332;2023-11-19T03:32:36;30.80;;;4.40;;
25553;SDS011;13446;50.926;5.332;2023-11-19T03:35:02;42.50;;;4.75;;
25553;SDS011;13446;50.926;5.332;2023-11-19T03:37:32;30.02;;;4.57;;
25553;SDS011;13446;50.926;5.332;2023-11-19T03:39:58;23.67;;;3.70;;
25553;SDS011;13446;50.926;5.332;2023-11-19T03:42:28;28.95;;;3.63;;
25553;SDS011;13446;50.926;5.332;2023-11-19T03:44:55;24.35;;;3.53;;
25553;SDS011;13446;50.926;5.332;2023-11-19T03:47:21;33.83;;;4.68;;
25553;SDS011;13446;50.926;5.332;2023-11-19T03:49:48;33.75;;;4.22;;
25553;SDS011;13446;50.926;5.332;2023-11-19T03:52:14;22.73;;;3.42;;
25553;SDS011;13446;50.926;5.332;2023-11-19T03:54:40;33.67;;;4.57;;
25553;SDS011;13446;50.926;5.332;2023-11-19T03:57:06;20.05;;;3.42;;
25553;SDS011;13446;50.926;5.332;2023-11-19T03:59:32;28.77;;;4.28;;
25553;SDS011;13446;50.926;5.332;2023-11-19T04:01:58;27.95;;;4.00;;
25553;SDS011;13446;50.926;5.332;2023-11-19T04:04:25;24.23;;;3.88;;
25553;SDS011;13446;50.926;5.332;2023-11-19T04:06:52;21.92;;;3.30;;
25553;SDS011;13446;50.926;5.332;2023-11-19T04:09:18;32.08;;;3.90;;
25553;SDS011;13446;50.926;5.332;2023-11-19T04:11:44;29.13;;;4.22;;
25553;SDS011;13446;50.926;5.332;2023-11-19T04:14:13;31.42;;;4.25;;
25553;SDS011;13446;50.926;5.332;2023-11-19T04:16:40;28.13;;;3.58;;
25553;SDS011;13446;50.926;5.332;2023-11-19T04:19:06;31.77;;;3.95;;
25553;SDS011;13446;50.926;5.332;2023-11-19T04:21:32;23.27;;;3.67;;
25553;SDS011;13446;50.926;5.332;2023-11-19T04:23:58;26.10;;;3.80;;
25553;SDS011;13446;50.926;5.332;2023-11-19T04:26:24;29.33;;;3.75;;
25553;SDS011;13446;50.926;5.332;2023-11-19T04:28:50;25.17;;;3.75;;
25553;SDS011;13446;50.926;5.332;2023-11-19T04:31:15;32.50;;;4.43;;
25553;SDS011;13446;50.926;5.332;2023-11-19T04:33:44;32.63;;;3.65;;
25553;SDS011;13446;50.926;5.332;2023-11-19T04:36:10;25.35;;;4.03;;
25553;SDS011;13446;50.926;5.332;2023-11-19T04:38:36;29.08;;;3.67;;
25553;SDS011;13446;50.926;5.332;2023-11-19T04:41:03;26.98;;;3.75;;
25553;SDS011;13446;50.926;5.332;2023-11-19T04:43:30;31.10;;;4.10;;
25553;SDS011;13446;50.926;5.332;2023-11-19T04:45:58;33.55;;;4.30;;
25553;SDS011;13446;50.926;5.332;2023-11-19T04:48:24;24.52;;;3.60;;
25553;SDS011;13446;50.926;5.332;2023-11-19T04:50:51;40.75;;;4.35;;
25553;SDS011;13446;50.926;5.332;2023-11-19T04:53:17;31.95;;;4.95;;
25553;SDS011;13446;50.926;5.332;2023-11-19T04:55:43;34.65;;;4.50;;
25553;SDS011;13446;50.926;5.332;2023-11-19T04:58:09;31.55;;;3.95;;
25553;SDS011;13446;50.926;5.332;2023-11-19T05:00:35;30.25;;;4.32;;
25553;SDS011;13446;50.926;5.332;2023-11-19T05:03:01;26.27;;;4.00;;
25553;SDS011;13446;50.926;5.332;2023-11-19T05:05:27;29.42;;;3.75;;
25553;SDS011;13446;50.926;5.332;2023-11-19T05:07:53;28.15;;;3.33;;
25553;SDS011;13446;50.926;5.332;2023-11-19T05:10:19;32.85;;;4.97;;
25553;SDS011;13446;50.926;5.332;2023-11-19T05:12:45;24.88;;;4.18;;
25553;SDS011;13446;50.926;5.332;2023-11-19T05:15:11;26.75;;;4.35;;
25553;SDS011;13446;50.926;5.332;2023-11-19T05:17:37;27.85;;;4.63;;
25553;SDS011;13446;50.926;5.332;2023-11-19T05:20:04;26.15;;;4.03;;
25553;SDS011;13446;50.926;5.332;2023-11-19T05:22:38;32.47;;;5.15;;
25553;SDS011;13446;50.926;5.332;2023-11-19T05:25:07;30.48;;;4.65;;
25553;SDS011;13446;50.926;5.332;2023-11-19T05:27:36;36.85;;;4.85;;
25553;SDS011;13446;50.926;5.332;2023-11-19T05:30:05;31.33;;;4.22;;
25553;SDS011;13446;50.926;5.332;2023-11-19T05:32:35;31.02;;;3.92;;
25553;SDS011;13446;50.926;5.332;2023-11-19T05:35:01;34.80;;;4.07;;
25553;SDS011;13446;50.926;5.332;2023-11-19T05:37:27;38.92;;;5.63;;
25553;SDS011;13446;50.926;5.332;2023-11-19T05:39:53;39.75;;;4.57;;
25553;SDS011;13446;50.926;5.332;2023-11-19T05:42:18;42.28;;;4.50;;
25553;SDS011;13446;50.926;5.332;2023-11-19T05:44:44;31.17;;;4.32;;
25553;SDS011;13446;50.926;5.332;2023-11-19T05:47:10;31.27;;;4.63;;
25553;SDS011;13446;50.926;5.332;2023-11-19T05:49:36;45.78;;;4.50;;
25553;SDS011;13446;50.926;5.332;2023-11-19T05:52:02;38.97;;;4.88;;
25553;SDS011;13446;50.926;5.332;2023-11-19T05:54:28;37.63;;;4.72;;
25553;SDS011;13446;50.926;5.332;2023-11-19T05:56:54;32.22;;;4.88;;
25553;SDS011;13446;50.926;5.332;2023-11-19T05:59:20;33.47;;;4.40;;
25553;SDS011;13446;50.926;5.332;2023-11-19T06:01:48;37.90;;;4.35;;
25553;SDS011;13446;50.926;5.332;2023-11-19T06:04:13;32.88;;;4.25;;
25553;SDS011;13446;50.926;5.332;2023-11-19T06:06:48;39.22;;;4.60;;
25553;SDS011;13446;50.926;5.332;2023-11-19T06:09:14;41.53;;;4.53;;
25553;SDS011;13446;50.926;5.332;2023-11-19T06:11:46;33.60;;;4.68;;
25553;SDS011;13446;50.926;5.332;2023-11-19T06:14:16;28.55;;;4.45;;
25553;SDS011;13446;50.926;5.332;2023-11-19T06:16:41;39.75;;;5.85;;
25553;SDS011;13446;50.926;5.332;2023-11-19T06:19:07;39.70;;;4.30;;
25553;SDS011;13446;50.926;5.332;2023-11-19T06:21:33;33.60;;;4.45;;
25553;SDS011;13446;50.926;5.332;2023-11-19T06:24:04;33.88;;;4.40;;
25553;SDS011;13446;50.926;5.332;2023-11-19T06:26:30;34.10;;;4.18;;
25553;SDS011;13446;50.926;5.332;2023-11-19T06:28:56;29.85;;;4.07;;
25553;SDS011;13446;50.926;5.332;2023-11-19T06:31:22;36.47;;;4.75;;
25553;SDS011;13446;50.926;5.332;2023-11-19T06:33:47;36.42;;;4.35;;
25553;SDS011;13446;50.926;5.332;2023-11-19T06:36:16;33.55;;;4.07;;
25553;SDS011;13446;50.926;5.332;2023-11-19T06:38:42;42.08;;;5.35;;
25553;SDS011;13446;50.926;5.332;2023-11-19T06:41:08;37.50;;;5.28;;
25553;SDS011;13446;50.926;5.332;2023-11-19T06:43:37;39.15;;;4.68;;
25553;SDS011;13446;50.926;5.332;2023-11-19T06:46:02;39.65;;;5.35;;
25553;SDS011;13446;50.926;5.332;2023-11-19T06:48:31;34.75;;;4.18;;
25553;SDS011;13446;50.926;5.332;2023-11-19T06:51:00;40.58;;;4.15;;
25553;SDS011;13446;50.926;5.332;2023-11-19T06:53:25;39.08;;;4.95;;
25553;SDS011;13446;50.926;5.332;2023-11-19T06:55:53;36.45;;;4.10;;
25553;SDS011;13446;50.926;5.332;2023-11-19T06:58:19;45.83;;;5.05;;
25553;SDS011;13446;50.926;5.332;2023-11-19T07:00:45;41.35;;;4.57;;
25553;SDS011;13446;50.926;5.332;2023-11-19T07:03:12;48.03;;;4.85;;
25553;SDS011;13446;50.926;5.332;2023-11-19T07:05:38;44.50;;;4.88;;
25553;SDS011;13446;50.926;5.332;2023-11-19T07:08:05;42.28;;;5.53;;
25553;SDS011;13446;50.926;5.332;2023-11-19T07:10:33;40.55;;;4.82;;
25553;SDS011;13446;50.926;5.332;2023-11-19T07:12:59;34.05;;;5.68;;
25553;SDS011;13446;50.926;5.332;2023-11-19T07:15:25;38.15;;;5.28;;
25553;SDS011;13446;50.926;5.332;2023-11-19T07:17:51;31.25;;;4.50;;
25553;SDS011;13446;50.926;5.332;2023-11-19T07:20:19;35.65;;;4.38;;
25553;SDS011;13446;50.926;5.332;2023-11-19T07:22:45;36.65;;;5.03;;
25553;SDS011;13446;50.926;5.332;2023-11-19T07:25:12;35.83;;;4.72;;
25553;SDS011;13446;50.926;5.332;2023-11-19T07:27:47;32.88;;;4.43;;
25553;SDS011;13446;50.926;5.332;2023-11-19T07:30:17;31.80;;;4.88;;
25553;SDS011;13446;50.926;5.332;2023-11-19T07:32:43;38.90;;;5.40;;
25553;SDS011;13446;50.926;5.332;2023-11-19T07:35:27;29.30;;;4.43;;
25553;SDS011;13446;50.926;5.332;2023-11-19T07:37:55;35.65;;;4.72;;
25553;SDS011;13446;50.926;5.332;2023-11-19T07:40:46;35.53;;;4.38;;
25553;SDS011;13446;50.926;5.332;2023-11-19T07:43:12;34.72;;;4.68;;
25553;SDS011;13446;50.926;5.332;2023-11-19T07:51:37;34.72;;;4.82;;
25553;SDS011;13446;50.926;5.332;2023-11-19T07:54:03;49.53;;;5.05;;
25553;SDS011;13446;50.926;5.332;2023-11-19T07:56:31;34.20;;;4.15;;
25553;SDS011;13446;50.926;5.332;2023-11-19T07:58:59;34.92;;;4.93;;
25553;SDS011;13446;50.926;5.332;2023-11-19T08:01:25;33.53;;;5.20;;
25553;SDS011;13446;50.926;5.332;2023-11-19T08:03:50;35.10;;;4.55;;
25553;SDS011;13446;50.926;5.332;2023-11-19T08:06:16;34.65;;;5.20;;
25553;SDS011;13446;50.926;5.332;2023-11-19T08:08:42;44.38;;;4.97;;
25553;SDS011;13446;50.926;5.332;2023-11-19T08:11:08;40.17;;;5.10;;
25553;SDS011;13446;50.926;5.332;2023-11-19T08:13:33;29.42;;;4.90;;
25553;SDS011;13446;50.926;5.332;2023-11-19T08:16:01;35.35;;;5.93;;
25553;SDS011;13446;50.926;5.332;2023-11-19T08:18:26;38.58;;;5.25;;
25553;SDS011;13446;50.926;5.332;2023-11-19T08:20:52;27.08;;;5.20;;
25553;SDS011;13446;50.926;5.332;2023-11-19T08:23:21;33.78;;;4.78;;
25553;SDS011;13446;50.926;5.332;2023-11-19T08:25:49;32.33;;;4.93;;
25553;SDS011;13446;50.926;5.332;2023-11-19T08:28:14;24.50;;;4.63;;
25553;SDS011;13446;50.926;5.332;2023-11-19T08:30:40;29.38;;;4.80;;
25553;SDS011;13446;50.926;5.332;2023-11-19T08:33:06;30.80;;;4.55;;
25553;SDS011;13446;50.926;5.332;2023-11-19T08:35:32;29.35;;;4.68;;
25553;SDS011;13446;50.926;5.332;2023-11-19T08:37:58;30.48;;;4.50;;
25553;SDS011;13446;50.926;5.332;2023-11-19T08:40:24;26.00;;;4.47;;
25553;SDS011;13446;50.926;5.332;2023-11-19T08:42:51;25.10;;;4.65;;
25553;SDS011;13446;50.926;5.332;2023-11-19T08:45:19;28.50;;;4.55;;
25553;SDS011;13446;50.926;5.332;2023-11-19T08:47:44;24.83;;;4.38;;
25553;SDS011;13446;50.926;5.332;2023-11-19T08:50:11;32.17;;;5.00;;
25553;SDS011;13446;50.926;5.332;2023-11-19T08:52:37;30.83;;;3.92;;
25553;SDS011;13446;50.926;5.332;2023-11-19T08:55:02;27.27;;;3.53;;
25553;SDS011;13446;50.926;5.332;2023-11-19T08:57:30;36.95;;;5.65;;
25553;SDS011;13446;50.926;5.332;2023-11-19T08:59:57;27.48;;;4.63;;
25553;SDS011;13446;50.926;5.332;2023-11-19T09:02:34;22.08;;;4.50;;
25553;SDS011;13446;50.926;5.332;2023-11-19T09:05:12;25.58;;;3.85;;
25553;SDS011;13446;50.926;5.332;2023-11-19T09:07:37;22.20;;;3.88;;
25553;SDS011;13446;50.926;5.332;2023-11-19T09:10:03;23.23;;;4.07;;
25553;SDS011;13446;50.926;5.332;2023-11-19T09:12:30;24.70;;;4.35;;
25553;SDS011;13446;50.926;5.332;2023-11-19T09:14:56;23.10;;;4.28;;
25553;SDS011;13446;50.926;5.332;2023-11-19T09:17:25;22.98;;;3.88;;
25553;SDS011;13446;50.926;5.332;2023-11-19T09:19:54;23.40;;;4.28;;
25553;SDS011;13446;50.926;5.332;2023-11-19T09:22:20;28.02;;;3.92;;
25553;SDS011;13446;50.926;5.332;2023-11-19T09:24:50;25.50;;;4.40;;
25553;SDS011;13446;50.926;5.332;2023-11-19T09:27:19;24.88;;;4.90;;
25553;SDS011;13446;50.926;5.332;2023-11-19T09:29:46;25.90;;;4.30;;
25553;SDS011;13446;50.926;5.332;2023-11-19T09:32:14;28.40;;;4.28;;
25553;SDS011;13446;50.926;5.332;2023-11-19T09:34:42;32.90;;;4.47;;
25553;SDS011;13446;50.926;5.332;2023-11-19T09:37:08;26.48;;;4.80;;
25553;SDS011;13446;50.926;5.332;2023-11-19T09:39:52;33.08;;;4.97;;
25553;SDS011;13446;50.926;5.332;2023-11-19T09:42:21;26.35;;;4.13;;
25553;SDS011;13446;50.926;5.332;2023-11-19T09:45:05;21.25;;;4.18;;
25553;SDS011;13446;50.926;5.332;2023-11-19T09:47:37;26.02;;;4.20;;
25553;SDS011;13446;50.926;5.332;2023-11-19T09:50:03;33.25;;;4.47;;
25553;SDS011;13446;50.926;5.332;2023-11-19T09:52:36;28.63;;;4.22;;
25553;SDS011;13446;50.926;5.332;2023-11-19T09:55:01;28.48;;;4.18;;
25553;SDS011;13446;50.926;5.332;2023-11-19T09:57:27;42.00;;;4.70;;
25553;SDS011;13446;50.926;5.332;2023-11-19T09:59:57;29.30;;;4.20;;
25553;SDS011;13446;50.926;5.332;2023-11-19T10:02:24;32.13;;;3.97;;
25553;SDS011;13446;50.926;5.332;2023-11-19T10:04:55;26.10;;;4.00;;
25553;SDS011;13446;50.926;5.332;2023-11-19T10:07:40;31.80;;;4.47;;
25553;SDS011;13446;50.926;5.332;2023-11-19T10:10:06;21.85;;;3.72;;
25553;SDS011;13446;50.926;5.332;2023-11-19T10:12:50;28.25;;;4.10;;
25553;SDS011;13446;50.926;5.332;2023-11-19T10:15:26;21.35;;;4.15;;
25553;SDS011;13446;50.926;5.332;2023-11-19T10:18:07;22.77;;;3.90;;
25553;SDS011;13446;50.926;5.332;2023-11-19T10:20:36;24.40;;;3.90;;
25553;SDS011;13446;50.926;5.332;2023-11-19T10:23:02;26.30;;;4.80;;
25553;SDS011;13446;50.926;5.332;2023-11-19T10:25:28;23.15;;;3.83;;
25553;SDS011;13446;50.926;5.332;2023-11-19T10:27:55;31.50;;;3.85;;
25553;SDS011;13446;50.926;5.332;2023-11-19T10:30:23;21.65;;;4.07;;
25553;SDS011;13446;50.926;5.332;2023-11-19T10:38:37;19.02;;;3.78;;
25553;SDS011;13446;50.926;5.332;2023-11-19T10:41:03;21.15;;;3.65;;
25553;SDS011;13446;50.926;5.332;2023-11-19T10:43:31;18.42;;;3.70;;
25553;SDS011;13446;50.926;5.332;2023-11-19T10:46:09;18.77;;;3.63;;
25553;SDS011;13446;50.926;5.332;2023-11-19T10:48:36;17.83;;;3.63;;
25553;SDS011;13446;50.926;5.332;2023-11-19T10:51:06;22.88;;;3.97;;
25553;SDS011;13446;50.926;5.332;2023-11-19T10:53:36;24.35;;;3.95;;
25553;SDS011;13446;50.926;5.332;2023-11-19T10:56:06;27.63;;;5.18;;
25553;SDS011;13446;50.926;5.332;2023-11-19T10:58:38;20.00;;;3.47;;
25553;SDS011;13446;50.926;5.332;2023-11-19T11:01:13;25.90;;;4.03;;
25553;SDS011;13446;50.926;5.332;2023-11-19T11:03:45;20.00;;;3.60;;
25553;SDS011;13446;50.926;5.332;2023-11-19T11:06:12;23.52;;;3.67;;
25553;SDS011;13446;50.926;5.332;2023-11-19T11:08:39;20.52;;;3.90;;
25553;SDS011;13446;50.926;5.332;2023-11-19T11:11:08;23.77;;;4.22;;
25553;SDS011;13446;50.926;5.332;2023-11-19T11:13:42;33.67;;;4.38;;
25553;SDS011;13446;50.926;5.332;2023-11-19T11:16:09;32.35;;;4.65;;
25553;SDS011;13446;50.926;5.332;2023-11-19T11:18:36;22.48;;;3.88;;
25553;SDS011;13446;50.926;5.332;2023-11-19T11:21:07;29.60;;;5.28;;
25553;SDS011;13446;50.926;5.332;2023-11-19T11:26:29;29.02;;;3.90;;
25553;SDS011;13446;50.926;5.332;2023-11-19T11:37:09;22.52;;;3.60;;
25553;SDS011;13446;50.926;5.332;2023-11-19T11:39:39;25.05;;;4.10;;
25553;SDS011;13446;50.926;5.332;2023-11-19T11:50:20;17.55;;;3.10;;
25553;SDS011;13446;50.926;5.332;2023-11-19T11:57:50;21.25;;;4.15;;
25553;SDS011;13446;50.926;5.332;2023-11-19T12:03:11;25.45;;;3.70;;
25553;SDS011;13446;50.926;5.332;2023-11-19T12:05:43;29.25;;;3.83;;
25553;SDS011;13446;50.926;5.332;2023-11-19T12:08:11;27.10;;;3.90;;
25553;SDS011;13446;50.926;5.332;2023-11-19T12:10:44;22.98;;;3.92;;
25553;SDS011;13446;50.926;5.332;2023-11-19T12:13:14;28.30;;;4.45;;
25553;SDS011;13446;50.926;5.332;2023-11-19T12:18:31;23.35;;;3.90;;
25553;SDS011;13446;50.926;5.332;2023-11-19T12:21:00;30.58;;;4.38;;
25553;SDS011;13446;50.926;5.332;2023-11-19T12:23:36;28.33;;;3.95;;
25553;SDS011;13446;50.926;5.332;2023-11-19T12:26:20;26.77;;;4.57;;
25553;SDS011;13446;50.926;5.332;2023-11-19T12:28:57;30.92;;;4.20;;
25553;SDS011;13446;50.926;5.332;2023-11-19T12:31:24;29.30;;;4.20;;
25553;SDS011;13446;50.926;5.332;2023-11-19T12:33:52;28.67;;;4.35;;
25553;SDS011;13446;50.926;5.332;2023-11-19T12:36:19;28.33;;;4.32;;
25553;SDS011;13446;50.926;5.332;2023-11-19T12:39:16;29.35;;;4.30;;
25553;SDS011;13446;50.926;5.332;2023-11-19T12:41:52;23.17;;;4.30;;
25553;SDS011;13446;50.926;5.332;2023-11-19T12:44:18;19.25;;;4.15;;
25553;SDS011;13446;50.926;5.332;2023-11-19T12:46:44;23.17;;;4.20;;
25553;SDS011;13446;50.926;5.332;2023-11-19T12:49:11;20.88;;;3.28;;
25553;SDS011;13446;50.926;5.332;2023-11-19T12:51:36;27.40;;;4.10;;
25553;SDS011;13446;50.926;5.332;2023-11-19T12:54:02;28.15;;;3.53;;
25553;SDS011;13446;50.926;5.332;2023-11-19T12:56:29;22.98;;;3.67;;
25553;SDS011;13446;50.926;5.332;2023-11-19T12:58:55;23.48;;;3.85;;
25553;SDS011;13446;50.926;5.332;2023-11-19T13:01:21;31.13;;;3.65;;
25553;SDS011;13446;50.926;5.332;2023-11-19T13:03:47;30.23;;;4.28;;
25553;SDS011;13446;50.926;5.332;2023-11-19T13:06:19;21.63;;;3.40;;
25553;SDS011;13446;50.926;5.332;2023-11-19T13:08:51;19.08;;;2.80;;
25553;SDS011;13446;50.926;5.332;2023-11-19T13:11:33;19.50;;;3.10;;
25553;SDS011;13446;50.926;5.332;2023-11-19T13:14:02;13.48;;;2.65;;
25553;SDS011;13446;50.926;5.332;2023-11-19T13:16:29;19.95;;;3.17;;
25553;SDS011;13446;50.926;5.332;2023-11-19T13:18:55;18.52;;;2.97;;
25553;SDS011;13446;50.926;5.332;2023-11-19T13:21:22;17.90;;;3.50;;
25553;SDS011;13446;50.926;5.332;2023-11-19T13:23:49;26.08;;;3.75;;
25553;SDS011;13446;50.926;5.332;2023-11-19T13:26:16;20.88;;;3.03;;
25553;SDS011;13446;50.926;5.332;2023-11-19T13:28:42;23.35;;;3.97;;
25553;SDS011;13446;50.926;5.332;2023-11-19T13:31:13;22.00;;;3.95;;
25553;SDS011;13446;50.926;5.332;2023-11-19T13:33:39;24.83;;;4.13;;
25553;SDS011;13446;50.926;5.332;2023-11-19T13:36:06;25.38;;;4.30;;
25553;SDS011;13446;50.926;5.332;2023-11-19T13:38:35;24.80;;;3.58;;
25553;SDS011;13446;50.926;5.332;2023-11-19T13:41:04;27.77;;;3.85;;
25553;SDS011;13446;50.926;5.332;2023-11-19T13:43:30;21.45;;;3.35;;
25553;SDS011;13446;50.926;5.332;2023-11-19T13:45:57;31.55;;;4.13;;
25553;SDS011;13446;50.926;5.332;2023-11-19T13:48:23;21.35;;;3.38;;
25553;SDS011;13446;50.926;5.332;2023-11-19T13:50:50;24.13;;;4.00;;
25553;SDS011;13446;50.926;5.332;2023-11-19T13:53:15;26.45;;;4.53;;
25553;SDS011;13446;50.926;5.332;2023-11-19T13:55:42;29.17;;;4.20;;
25553;SDS011;13446;50.926;5.332;2023-11-19T13:58:09;28.88;;;4.68;;
25553;SDS011;13446;50.926;5.332;2023-11-19T14:00:35;34.67;;;4.68;;
25553;SDS011;13446;50.926;5.332;2023-11-19T14:03:02;26.05;;;4.50;;
25553;SDS011;13446;50.926;5.332;2023-11-19T14:05:28;26.42;;;4.22;;
25553;SDS011;13446;50.926;5.332;2023-11-19T14:08:20;32.53;;;4.47;;
25553;SDS011;13446;50.926;5.332;2023-11-19T14:10:52;29.25;;;9.45;;
25553;SDS011;13446;50.926;5.332;2023-11-19T14:16:18;19.10;;;4.07;;
25553;SDS011;13446;50.926;5.332;2023-11-19T14:18:45;31.73;;;5.88;;
25553;SDS011;13446;50.926;5.332;2023-11-19T14:21:11;22.80;;;3.85;;
25553;SDS011;13446;50.926;5.332;2023-11-19T14:23:40;28.85;;;4.15;;
25553;SDS011;13446;50.926;5.332;2023-11-19T14:26:07;20.52;;;4.20;;
25553;SDS011;13446;50.926;5.332;2023-11-19T14:28:33;24.15;;;3.80;;
25553;SDS011;13446;50.926;5.332;2023-11-19T14:31:00;29.65;;;3.72;;
25553;SDS011;13446;50.926;5.332;2023-11-19T14:33:26;30.92;;;3.95;;
25553;SDS011;13446;50.926;5.332;2023-11-19T14:35:52;29.48;;;4.32;;
25553;SDS011;13446;50.926;5.332;2023-11-19T14:38:18;19.27;;;3.30;;
25553;SDS011;13446;50.926;5.332;2023-11-19T14:40:44;26.55;;;3.97;;
25553;SDS011;13446;50.926;5.332;2023-11-19T14:43:12;32.63;;;4.88;;
25553;SDS011;13446;50.926;5.332;2023-11-19T14:45:40;31.92;;;4.47;;
25553;SDS011;13446;50.926;5.332;2023-11-19T14:48:06;24.52;;;3.70;;
25553;SDS011;13446;50.926;5.332;2023-11-19T14:50:31;24.02;;;3.92;;
25553;SDS011;13446;50.926;5.332;2023-11-19T14:52:57;24.98;;;4.07;;
25553;SDS011;13446;50.926;5.332;2023-11-19T14:55:23;27.60;;;4.40;;
25553;SDS011;13446;50.926;5.332;2023-11-19T15:04:45;22.67;;;3.72;;
25553;SDS011;13446;50.926;5.332;2023-11-19T15:07:11;32.65;;;5.45;;
25553;SDS011;13446;50.926;5.332;2023-11-19T15:09:52;27.08;;;4.72;;
25553;SDS011;13446;50.926;5.332;2023-11-19T15:12:38;29.45;;;3.75;;
25553;SDS011;13446;50.926;5.332;2023-11-19T15:15:09;31.60;;;4.60;;
25553;SDS011;13446;50.926;5.332;2023-11-19T15:17:38;23.42;;;4.07;;
25553;SDS011;13446;50.926;5.332;2023-11-19T15:20:06;27.08;;;3.75;;
25553;SDS011;13446;50.926;5.332;2023-11-19T15:22:32;35.25;;;6.30;;
25553;SDS011;13446;50.926;5.332;2023-11-19T15:24:58;30.08;;;4.18;;
25553;SDS011;13446;50.926;5.332;2023-11-19T15:27:24;35.17;;;5.80;;
25553;SDS011;13446;50.926;5.332;2023-11-19T15:29:49;32.42;;;3.60;;
25553;SDS011;13446;50.926;5.332;2023-11-19T15:32:15;26.38;;;4.60;;
25553;SDS011;13446;50.926;5.332;2023-11-19T15:34:41;29.52;;;4.40;;